createdAt,value
2019-03-06T00:01:00.110Z,5.00
2019-03-06T00:03:29.435Z,5.00
2019-03-06T00:05:58.570Z,5.00
2019-03-06T00:08:27.829Z,5.00
2019-03-06T00:10:56.986Z,5.00
2019-03-06T00:13:26.230Z,5.00
2019-03-06T00:15:55.534Z,5.00
2019-03-06T00:18:24.818Z,5.00
2019-03-06T00:20:54.126Z,5.00
2019-03-06T00:23:23.389Z,4.90
2019-03-06T00:25:52.646Z,5.00
2019-03-06T00:28:21.888Z,5.00
2019-03-06T00:30:51.330Z,5.00
2019-03-06T00:33:20.563Z,5.00
2019-03-06T00:35:51.122Z,5.00
2019-03-06T00:38:20.665Z,5.00
2019-03-06T00:41:02.162Z,5.00
2019-03-06T00:43:31.282Z,4.90
2019-03-06T00:46:00.508Z,5.00
2019-03-06T00:48:30.163Z,4.90
2019-03-06T00:50:59.462Z,5.00
2019-03-06T00:53:28.674Z,4.90
2019-03-06T00:55:57.943Z,4.90
2019-03-06T00:58:27.158Z,4.90
2019-03-06T01:00:56.692Z,4.90
2019-03-06T01:03:25.966Z,4.90
2019-03-06T01:05:55.298Z,4.90
2019-03-06T01:08:24.548Z,4.90
2019-03-06T01:10:53.819Z,5.00
2019-03-06T01:13:23.369Z,5.00
2019-03-06T01:15:52.636Z,5.00
2019-03-06T01:18:21.972Z,5.00
2019-03-06T01:20:51.244Z,5.00
2019-03-06T01:23:20.444Z,5.00
2019-03-06T01:25:49.736Z,5.00
2019-03-06T01:28:18.972Z,5.00
2019-03-06T01:30:48.191Z,5.00
2019-03-06T01:33:36.427Z,5.00
2019-03-06T01:36:27.878Z,5.10
2019-03-06T01:39:18.172Z,5.00
2019-03-06T01:42:04.780Z,5.00
2019-03-06T01:44:38.880Z,5.00
2019-03-06T01:47:08.521Z,4.90
2019-03-06T01:49:37.754Z,5.00
2019-03-06T01:52:06.995Z,4.90
2019-03-06T01:54:36.160Z,4.90
2019-03-06T01:57:05.347Z,4.90
2019-03-06T01:59:34.791Z,4.90
2019-03-06T02:02:03.993Z,4.90
2019-03-06T02:04:33.225Z,4.90
2019-03-06T02:07:02.518Z,4.90
2019-03-06T02:09:32.514Z,4.90
2019-03-06T02:12:01.890Z,4.90
2019-03-06T02:14:31.176Z,4.90
2019-03-06T02:17:00.355Z,5.00
2019-03-06T02:19:29.671Z,5.00
2019-03-06T02:21:58.931Z,5.00
2019-03-06T02:24:28.171Z,5.00
2019-03-06T02:26:57.510Z,5.00
2019-03-06T02:29:26.729Z,5.00
2019-03-06T02:31:56.041Z,5.00
2019-03-06T02:34:25.332Z,5.00
2019-03-06T02:36:54.551Z,4.90
2019-03-06T02:39:23.807Z,5.00
2019-03-06T02:41:52.954Z,5.00
2019-03-06T02:44:22.197Z,5.00
2019-03-06T02:46:51.417Z,5.00
2019-03-06T02:49:20.598Z,4.90
2019-03-06T02:51:49.835Z,5.00
2019-03-06T02:54:19.133Z,4.90
2019-03-06T02:56:48.344Z,4.80
2019-03-06T02:59:32.253Z,4.70
2019-03-06T03:02:06.371Z,4.70
2019-03-06T03:04:53.319Z,4.70
2019-03-06T03:07:22.991Z,4.60
2019-03-06T03:09:52.193Z,4.50
2019-03-06T03:12:21.531Z,4.50
2019-03-06T03:14:50.809Z,4.50
2019-03-06T03:17:20.042Z,4.50
2019-03-06T03:19:49.796Z,4.50
2019-03-06T03:22:19.079Z,4.50
2019-03-06T03:24:48.311Z,4.50
2019-03-06T03:27:17.571Z,4.50
2019-03-06T03:29:46.771Z,4.50
2019-03-06T03:32:16.470Z,4.40
2019-03-06T03:34:45.686Z,4.30
2019-03-06T03:37:15.148Z,4.30
2019-03-06T03:39:44.568Z,4.30
2019-03-06T03:42:13.912Z,4.30
2019-03-06T03:44:43.407Z,4.20
2019-03-06T03:47:12.768Z,4.20
2019-03-06T03:49:41.933Z,4.10
2019-03-06T03:52:11.175Z,4.10
2019-03-06T03:54:40.507Z,4.00
2019-03-06T03:57:11.658Z,3.90
2019-03-06T03:59:40.919Z,3.90
2019-03-06T04:02:10.141Z,3.90
2019-03-06T04:04:39.421Z,3.90
2019-03-06T04:07:08.584Z,3.90
2019-03-06T04:09:37.760Z,3.90
2019-03-06T04:12:07.037Z,3.90
2019-03-06T04:14:36.342Z,3.90
2019-03-06T04:17:05.513Z,3.90
2019-03-06T04:19:34.757Z,3.90
2019-03-06T04:22:03.945Z,3.80
2019-03-06T04:24:33.180Z,3.90
2019-03-06T04:27:02.467Z,3.90
2019-03-06T04:29:31.619Z,3.80
2019-03-06T04:32:00.863Z,3.80
2019-03-06T04:34:30.121Z,3.70
2019-03-06T04:36:59.279Z,3.70
2019-03-06T04:39:28.558Z,3.60
2019-03-06T04:41:57.856Z,3.60
2019-03-06T04:44:27.197Z,3.60
2019-03-06T04:46:56.425Z,3.60
2019-03-06T04:49:25.691Z,3.50
2019-03-06T04:51:54.820Z,3.50
2019-03-06T04:54:24.261Z,3.50
2019-03-06T04:56:53.447Z,3.50
2019-03-06T04:59:22.851Z,3.50
2019-03-06T05:01:52.163Z,3.50
2019-03-06T05:04:21.356Z,3.60
2019-03-06T05:06:50.511Z,3.60
2019-03-06T05:09:19.824Z,3.70
2019-03-06T05:11:49.011Z,3.70
2019-03-06T05:14:18.217Z,3.70
2019-03-06T05:16:55.403Z,3.70
2019-03-06T05:19:24.586Z,3.70
2019-03-06T05:21:53.942Z,3.70
2019-03-06T05:24:23.512Z,3.70
2019-03-06T05:26:52.825Z,3.70
2019-03-06T05:29:22.019Z,3.70
2019-03-06T05:32:28.577Z,3.70
2019-03-06T05:34:58.997Z,3.70
2019-03-06T05:38:03.766Z,3.70
2019-03-06T05:40:33.131Z,3.60
2019-03-06T05:43:02.490Z,3.70
2019-03-06T05:45:31.801Z,3.60
2019-03-06T05:48:01.391Z,3.70
2019-03-06T05:50:30.745Z,3.70
2019-03-06T05:52:59.997Z,3.60
2019-03-06T05:55:29.152Z,3.70
2019-03-06T05:57:58.311Z,3.80
2019-03-06T06:00:28.155Z,3.70
2019-03-06T06:02:57.405Z,3.70
2019-03-06T06:05:26.695Z,3.80
2019-03-06T06:07:56.026Z,3.70
2019-03-06T06:10:25.296Z,3.70
2019-03-06T06:12:54.645Z,3.70
2019-03-06T06:15:23.783Z,3.80
2019-03-06T06:17:53.007Z,3.90
2019-03-06T06:20:22.210Z,4.10
2019-03-06T06:23:25.591Z,4.30
2019-03-06T06:25:54.805Z,4.50
2019-03-06T06:28:23.959Z,4.80
2019-03-06T06:30:53.492Z,5.40
2019-03-06T06:33:22.767Z,5.90
2019-03-06T06:35:51.964Z,6.40
2019-03-06T06:38:21.187Z,6.70
2019-03-06T06:40:50.424Z,6.70
2019-03-06T06:43:20.856Z,6.90
2019-03-06T06:45:50.015Z,7.60
2019-03-06T06:48:21.015Z,7.80
2019-03-06T06:51:14.195Z,8.00
2019-03-06T06:53:50.110Z,8.50
2019-03-06T06:57:12.627Z,8.00
2019-03-06T07:00:03.485Z,8.10
2019-03-06T07:02:56.770Z,8.50
2019-03-06T07:06:00.303Z,8.60
2019-03-06T07:08:50.093Z,9.10
2019-03-06T07:11:38.311Z,8.40
2019-03-06T07:14:17.750Z,8.00
2019-03-06T07:17:09.800Z,7.90
2019-03-06T07:19:47.216Z,7.80
2019-03-06T07:22:41.550Z,7.00
2019-03-06T07:25:32.911Z,7.10
2019-03-06T07:28:26.996Z,7.10
2019-03-06T07:31:15.218Z,7.40
2019-03-06T07:34:03.454Z,7.50
2019-03-06T07:36:59.105Z,8.00
2019-03-06T07:39:32.073Z,7.90
2019-03-06T07:42:19.436Z,8.00
2019-03-06T07:45:57.968Z,8.40
2019-03-06T07:48:43.531Z,9.80
2019-03-06T07:51:24.604Z,9.10
2019-03-06T07:54:09.556Z,8.60
2019-03-06T07:56:45.807Z,8.80
2019-03-06T07:59:15.058Z,9.40
2019-03-06T08:01:56.455Z,9.50
2019-03-06T08:04:25.712Z,9.40
2019-03-06T08:07:05.554Z,9.00
2019-03-06T08:09:34.714Z,9.50
2019-03-06T08:12:14.485Z,8.50
2019-03-06T08:15:08.738Z,8.90
2019-03-06T08:17:47.990Z,9.40
2019-03-06T08:20:35.092Z,9.80
2019-03-06T08:23:17.042Z,10.10
2019-03-06T08:25:46.474Z,10.20
2019-03-06T08:28:15.869Z,10.70
2019-03-06T08:30:51.949Z,9.60
2019-03-06T08:33:21.191Z,9.70
2019-03-06T08:35:50.464Z,9.00
2019-03-06T08:38:19.766Z,9.20
2019-03-06T08:40:48.922Z,9.50
2019-03-06T08:43:18.312Z,10.40
2019-03-06T08:46:21.867Z,10.50
2019-03-06T08:49:01.100Z,10.40
2019-03-06T08:51:45.934Z,10.60
2019-03-06T08:54:22.006Z,11.40
2019-03-06T08:57:09.147Z,12.10
2019-03-06T08:59:52.040Z,12.50
2019-03-06T09:02:49.569Z,12.20
2019-03-06T09:05:50.174Z,12.20
2019-03-06T09:08:39.559Z,11.80
2019-03-06T09:11:30.879Z,11.90
2019-03-06T09:14:15.654Z,12.50
2019-03-06T09:17:04.047Z,13.40
2019-03-06T09:19:59.860Z,13.60
2019-03-06T09:22:42.212Z,13.10
2019-03-06T09:25:29.631Z,12.40
2019-03-06T09:28:07.702Z,13.30
2019-03-06T09:30:45.881Z,12.10
2019-03-06T09:33:26.547Z,11.70
2019-03-06T09:36:19.029Z,12.70
2019-03-06T09:39:10.492Z,13.10
2019-03-06T09:41:58.688Z,13.00
2019-03-06T09:44:49.952Z,13.20
2019-03-06T09:47:38.244Z,12.50
2019-03-06T09:50:29.966Z,12.70
2019-03-06T09:53:20.133Z,12.30
2019-03-06T09:56:11.442Z,12.50
2019-03-06T09:59:02.683Z,13.80
2019-03-06T10:01:46.478Z,13.60
2019-03-06T10:04:50.080Z,14.00
2019-03-06T10:07:50.266Z,13.80
2019-03-06T10:10:46.352Z,12.30
2019-03-06T10:13:42.084Z,12.10
2019-03-06T10:16:29.535Z,12.80
2019-03-06T10:19:16.807Z,12.70
2019-03-06T10:21:46.079Z,13.00
2019-03-06T10:24:15.347Z,13.90
2019-03-06T10:26:44.586Z,13.60
2019-03-06T10:29:13.916Z,13.30
2019-03-06T10:31:43.186Z,12.60
2019-03-06T10:34:12.418Z,12.90
2019-03-06T10:36:41.740Z,13.10
2019-03-06T10:39:14.344Z,13.10
2019-03-06T10:41:43.603Z,13.40
2019-03-06T10:44:32.239Z,13.20
2019-03-06T10:47:01.502Z,14.10
2019-03-06T10:49:31.063Z,13.50
2019-03-06T10:52:00.398Z,13.30
2019-03-06T10:54:29.644Z,14.00
2019-03-06T10:56:59.019Z,14.90
2019-03-06T10:59:28.255Z,15.70
2019-03-06T11:01:57.660Z,15.30
2019-03-06T11:04:34.265Z,14.90
2019-03-06T11:07:03.906Z,14.80
2019-03-06T11:09:33.327Z,14.90
2019-03-06T11:12:02.723Z,15.20
2019-03-06T11:14:32.724Z,16.30
2019-03-06T11:17:02.129Z,14.70
2019-03-06T11:19:31.776Z,15.90
2019-03-06T11:22:00.994Z,15.90
2019-03-06T11:24:30.514Z,15.60
2019-03-06T11:26:59.856Z,14.90
2019-03-06T11:29:29.167Z,14.30
2019-03-06T11:31:58.477Z,15.30
2019-03-06T11:34:27.760Z,16.70
2019-03-06T11:36:57.627Z,17.40
2019-03-06T11:39:27.284Z,16.90
2019-03-06T11:41:56.611Z,15.70
2019-03-06T11:44:25.975Z,16.70
2019-03-06T11:46:55.243Z,16.60
2019-03-06T11:49:24.405Z,15.50
2019-03-06T11:51:54.108Z,15.10
2019-03-06T11:54:23.431Z,15.30
2019-03-06T11:56:52.708Z,16.30
2019-03-06T11:59:22.016Z,17.40
2019-03-06T12:01:51.394Z,17.30
2019-03-06T12:04:20.652Z,16.50
2019-03-06T12:07:09.000Z,16.40
2019-03-06T12:09:38.260Z,16.10
2019-03-06T12:12:07.596Z,14.70
2019-03-06T12:14:36.908Z,14.60
2019-03-06T12:17:06.374Z,14.10
2019-03-06T12:19:36.012Z,13.80
2019-03-06T12:22:07.153Z,13.90
2019-03-06T12:24:36.553Z,14.20
2019-03-06T12:27:06.159Z,14.40
2019-03-06T12:29:35.447Z,14.70
2019-03-06T12:32:05.826Z,14.60
2019-03-06T12:34:35.099Z,14.60
2019-03-06T12:37:04.365Z,14.40
2019-03-06T12:39:33.679Z,14.40
2019-03-06T12:42:03.075Z,14.20
2019-03-06T12:44:32.354Z,13.90
2019-03-06T12:47:01.659Z,14.00
2019-03-06T12:49:31.450Z,13.70
2019-03-06T12:52:00.759Z,13.80
2019-03-06T12:54:30.108Z,13.80
2019-03-06T12:56:59.413Z,13.90
2019-03-06T12:59:28.971Z,13.70
2019-03-06T13:01:58.247Z,14.00
2019-03-06T13:04:27.518Z,14.30
2019-03-06T13:06:56.687Z,14.40
2019-03-06T13:09:25.931Z,13.80
2019-03-06T13:11:55.269Z,13.90
2019-03-06T13:14:24.782Z,14.00
2019-03-06T13:16:54.464Z,14.10
2019-03-06T13:19:23.712Z,14.10
2019-03-06T13:21:52.986Z,13.60
2019-03-06T13:24:22.264Z,13.50
2019-03-06T13:26:51.584Z,13.70
2019-03-06T13:29:22.339Z,13.70
2019-03-06T13:31:51.646Z,13.30
2019-03-06T13:34:25.549Z,12.90
2019-03-06T13:36:54.852Z,13.00
2019-03-06T13:39:24.163Z,13.20
2019-03-06T13:41:53.487Z,13.30
2019-03-06T13:44:22.655Z,13.10
2019-03-06T13:46:52.034Z,13.20
2019-03-06T13:49:21.376Z,13.20
2019-03-06T13:51:51.986Z,13.20
2019-03-06T13:54:21.381Z,12.80
2019-03-06T13:56:51.846Z,12.80
2019-03-06T13:59:21.321Z,12.80
2019-03-06T14:01:50.652Z,12.90
2019-03-06T14:04:19.977Z,13.00
2019-03-06T14:06:49.331Z,13.20
2019-03-06T14:09:18.608Z,13.20
2019-03-06T14:11:48.090Z,13.20
2019-03-06T14:14:17.432Z,13.10
2019-03-06T14:16:46.763Z,13.00
2019-03-06T14:19:16.058Z,12.70
2019-03-06T14:21:45.296Z,12.70
2019-03-06T14:24:14.660Z,12.80
2019-03-06T14:26:43.965Z,13.00
2019-03-06T14:29:13.247Z,12.90
2019-03-06T14:31:42.953Z,13.10
2019-03-06T14:34:12.244Z,13.00
2019-03-06T14:36:41.569Z,13.10
2019-03-06T14:39:23.773Z,13.20
2019-03-06T14:41:53.329Z,13.10
2019-03-06T14:44:22.657Z,13.30
2019-03-06T14:46:52.002Z,13.40
2019-03-06T14:49:21.447Z,13.20
2019-03-06T14:51:50.968Z,13.00
2019-03-06T14:54:20.330Z,13.00
2019-03-06T14:56:49.594Z,13.00
2019-03-06T14:59:18.870Z,13.20
2019-03-06T15:01:48.155Z,13.00
2019-03-06T15:04:17.486Z,13.00
2019-03-06T15:06:47.431Z,13.10
2019-03-06T15:09:26.741Z,12.80
2019-03-06T15:11:56.086Z,12.80
2019-03-06T15:14:25.323Z,12.90
2019-03-06T15:16:54.639Z,12.80
2019-03-06T15:19:24.080Z,12.80
2019-03-06T15:21:53.311Z,12.80
2019-03-06T15:24:22.746Z,12.70
2019-03-06T15:26:52.103Z,12.70
2019-03-06T15:29:21.376Z,12.60
2019-03-06T15:31:51.587Z,12.40
2019-03-06T15:34:21.005Z,12.50
2019-03-06T15:36:50.355Z,12.50
2019-03-06T15:39:42.148Z,12.40
2019-03-06T15:42:09.668Z,12.40
2019-03-06T15:44:39.005Z,12.40
2019-03-06T15:47:08.776Z,12.30
2019-03-06T15:49:38.137Z,12.30
2019-03-06T15:52:09.351Z,12.30
2019-03-06T15:54:38.762Z,12.30
2019-03-06T15:57:10.027Z,12.20
2019-03-06T15:59:39.734Z,12.20
2019-03-06T16:02:09.079Z,12.10
2019-03-06T16:04:38.345Z,12.10
2019-03-06T16:07:07.747Z,12.00
2019-03-06T16:09:37.630Z,12.00
2019-03-06T16:12:07.176Z,11.90
2019-03-06T16:14:36.552Z,11.80
2019-03-06T16:17:05.863Z,11.80
2019-03-06T16:19:35.106Z,11.80
2019-03-06T16:22:04.361Z,11.70
2019-03-06T16:24:33.958Z,11.70
2019-03-06T16:27:03.185Z,11.60
2019-03-06T16:29:32.536Z,11.60
2019-03-06T16:32:01.866Z,11.50
2019-03-06T16:34:31.216Z,11.40
2019-03-06T16:37:00.950Z,11.40
2019-03-06T16:39:30.202Z,11.30
2019-03-06T16:42:00.151Z,11.30
2019-03-06T16:44:32.246Z,11.20
2019-03-06T16:47:06.654Z,11.10
2019-03-06T16:49:34.090Z,11.10
2019-03-06T16:52:03.378Z,11.00
2019-03-06T16:54:33.074Z,10.90
2019-03-06T16:57:02.294Z,10.90
2019-03-06T16:59:33.271Z,10.80
2019-03-06T17:02:02.708Z,10.70
2019-03-06T17:04:32.520Z,10.70
2019-03-06T17:07:01.724Z,10.60
2019-03-06T17:09:33.368Z,10.60
2019-03-06T17:12:02.708Z,10.60
2019-03-06T17:14:31.951Z,10.50
2019-03-06T17:17:01.412Z,10.50
2019-03-06T17:19:30.599Z,10.40
2019-03-06T17:21:59.816Z,10.40
2019-03-06T17:24:29.109Z,10.40
2019-03-06T17:26:58.512Z,10.30
2019-03-06T17:29:27.944Z,10.20
2019-03-06T17:31:57.502Z,10.20
2019-03-06T17:34:27.132Z,10.20
2019-03-06T17:36:56.482Z,10.10
2019-03-06T17:39:25.761Z,10.00
2019-03-06T17:41:55.201Z,10.00
2019-03-06T17:44:24.639Z,9.90
2019-03-06T17:46:54.213Z,9.90
2019-03-06T17:49:23.459Z,9.80
2019-03-06T17:51:53.052Z,9.80
2019-03-06T17:54:22.335Z,9.70
2019-03-06T17:56:53.050Z,9.70
2019-03-06T17:59:22.375Z,9.70
2019-03-06T18:01:51.862Z,9.70
2019-03-06T18:04:22.645Z,9.60
2019-03-06T18:06:51.937Z,9.60
2019-03-06T18:09:21.155Z,9.50
2019-03-06T18:11:50.519Z,9.50
2019-03-06T18:14:20.077Z,9.40
2019-03-06T18:16:49.349Z,9.40
2019-03-06T18:19:18.724Z,9.50
2019-03-06T18:21:48.086Z,9.50
2019-03-06T18:24:17.395Z,9.50
2019-03-06T18:26:46.678Z,9.50
2019-03-06T18:29:16.358Z,9.40
2019-03-06T18:31:45.623Z,9.40
2019-03-06T18:34:14.810Z,9.40
2019-03-06T18:36:44.143Z,9.40
2019-03-06T18:39:22.502Z,9.30
2019-03-06T18:41:53.514Z,9.30
2019-03-06T18:44:22.790Z,9.20
2019-03-06T18:46:52.109Z,9.20
2019-03-06T18:49:21.284Z,9.10
2019-03-06T18:51:50.618Z,9.00
2019-03-06T18:54:19.887Z,9.10
2019-03-06T18:56:49.712Z,9.00
2019-03-06T18:59:19.043Z,8.90
2019-03-06T19:01:48.421Z,8.80
2019-03-06T19:04:17.717Z,8.80
2019-03-06T19:06:47.085Z,8.90
2019-03-06T19:09:16.376Z,8.90
2019-03-06T19:11:46.063Z,8.90
2019-03-06T19:14:15.460Z,8.80
2019-03-06T19:16:44.861Z,8.70
2019-03-06T19:19:14.241Z,8.60
2019-03-06T19:21:43.643Z,8.60
2019-03-06T19:24:13.070Z,8.50
2019-03-06T19:26:42.672Z,8.50
2019-03-06T19:29:11.939Z,8.50
2019-03-06T19:31:41.273Z,8.50
2019-03-06T19:34:10.550Z,8.40
2019-03-06T19:36:39.882Z,8.40
2019-03-06T19:39:09.993Z,8.40
2019-03-06T19:41:39.325Z,8.40
2019-03-06T19:44:08.616Z,8.30
2019-03-06T19:46:37.984Z,8.30
2019-03-06T19:49:07.263Z,8.20
2019-03-06T19:51:36.621Z,8.20
2019-03-06T19:54:05.881Z,8.20
2019-03-06T19:56:35.431Z,8.20
2019-03-06T19:59:04.886Z,8.10
2019-03-06T20:01:34.339Z,8.20
2019-03-06T20:04:03.610Z,8.10
2019-03-06T20:06:33.069Z,8.10
2019-03-06T20:09:02.419Z,8.00
2019-03-06T20:11:31.745Z,8.00
2019-03-06T20:14:01.079Z,7.90
2019-03-06T20:16:30.343Z,7.80
2019-03-06T20:18:59.693Z,7.80
2019-03-06T20:21:29.074Z,7.70
2019-03-06T20:23:58.402Z,7.70
2019-03-06T20:26:28.039Z,7.70
2019-03-06T20:28:57.361Z,7.70
2019-03-06T20:31:26.691Z,7.60
2019-03-06T20:33:56.056Z,7.60
2019-03-06T20:36:25.429Z,7.50
2019-03-06T20:38:54.747Z,7.40
2019-03-06T20:41:24.473Z,7.40
2019-03-06T20:43:53.925Z,7.40
2019-03-06T20:46:23.133Z,7.30
2019-03-06T20:48:52.505Z,7.20
2019-03-06T20:51:21.889Z,7.20
2019-03-06T20:53:51.213Z,7.10
2019-03-06T20:56:20.860Z,7.10
2019-03-06T20:58:50.260Z,7.00
2019-03-06T21:01:19.811Z,6.90
2019-03-06T21:03:50.265Z,6.90
2019-03-06T21:06:19.707Z,6.90
2019-03-06T21:08:49.090Z,6.90
2019-03-06T21:11:18.423Z,6.80
2019-03-06T21:13:47.829Z,6.80
2019-03-06T21:16:17.103Z,6.90
2019-03-06T21:18:46.423Z,6.90
2019-03-06T21:21:15.666Z,6.90
2019-03-06T21:23:45.004Z,6.90
2019-03-06T21:26:14.314Z,6.90
2019-03-06T21:28:43.549Z,6.80
2019-03-06T21:31:12.890Z,6.80
2019-03-06T21:33:42.224Z,6.80
2019-03-06T21:36:11.509Z,6.80
2019-03-06T21:38:40.780Z,6.90
2019-03-06T21:41:10.090Z,6.90
2019-03-06T21:43:39.410Z,6.90
2019-03-06T21:46:08.735Z,6.80
2019-03-06T21:48:37.969Z,6.90
2019-03-06T21:51:07.368Z,6.80
2019-03-06T21:53:38.968Z,6.70
2019-03-06T21:56:07.692Z,6.70
2019-03-06T21:58:37.019Z,6.80
2019-03-06T22:01:06.328Z,6.80
2019-03-06T22:03:35.938Z,6.70
2019-03-06T22:06:05.221Z,6.70
2019-03-06T22:08:34.534Z,6.70
2019-03-06T22:11:04.011Z,6.60
2019-03-06T22:13:33.394Z,6.60
2019-03-06T22:16:02.768Z,6.60
2019-03-06T22:18:32.081Z,6.50
2019-03-06T22:21:01.429Z,6.60
2019-03-06T22:23:30.698Z,6.60
2019-03-06T22:26:00.028Z,6.50
2019-03-06T22:28:29.337Z,6.50
2019-03-06T22:30:59.045Z,6.50
2019-03-06T22:33:28.378Z,6.50
2019-03-06T22:35:57.594Z,6.50
2019-03-06T22:38:26.838Z,6.50
2019-03-06T22:40:56.160Z,6.50
2019-03-06T22:43:25.314Z,6.50
2019-03-06T22:45:54.625Z,6.50
2019-03-06T22:48:23.846Z,6.60
2019-03-06T22:50:53.134Z,6.50
2019-03-06T22:53:22.438Z,6.50
2019-03-06T22:55:51.758Z,6.50
2019-03-06T22:58:23.067Z,6.40
2019-03-06T23:01:08.032Z,6.30
2019-03-06T23:03:37.356Z,6.40
2019-03-06T23:06:07.588Z,6.40
2019-03-06T23:08:36.850Z,6.40
2019-03-06T23:11:06.693Z,6.40
2019-03-06T23:13:35.962Z,6.50
2019-03-06T23:16:05.344Z,6.50
2019-03-06T23:18:34.555Z,6.50
2019-03-06T23:21:03.943Z,6.50
2019-03-06T23:23:33.104Z,6.40
2019-03-06T23:26:02.392Z,6.30
2019-03-06T23:28:31.629Z,6.30
2019-03-06T23:31:00.962Z,6.20
2019-03-06T23:33:30.265Z,6.20
2019-03-06T23:35:59.498Z,6.20
2019-03-06T23:38:28.654Z,6.20
2019-03-06T23:40:57.900Z,6.20
2019-03-06T23:43:27.194Z,6.10
2019-03-06T23:45:56.536Z,6.10
2019-03-06T23:48:25.862Z,6.10
2019-03-06T23:50:55.111Z,6.00
2019-03-06T23:53:34.764Z,6.00
2019-03-06T23:56:03.995Z,6.00
2019-03-06T23:58:33.305Z,6.00
